Time;durP1;ratioP1;P1;durP2;ratioP2;P2;SDS_P1;SDS_P2;PMS_P1;PMS_P2;Temp;Humidity;BMP_temperature;BMP_pressure;BME280_temperature;BME280_humidity;BME280_pressure;Samples;Min_cycle;Max_cycle;Signal;HPM_P1;HPM_P2
2023/03/05 00:01:33;;;;;;;7.28;2.30;;;3.90;99.90;;;;;;5049981;28;20037;-65
2023/03/05 00:03:59;;;;;;;8.43;2.67;;;4.00;99.90;;;;;;5045943;28;20037;-64
2023/03/05 00:06:27;;;;;;;7.10;2.40;;;4.00;99.90;;;;;;5051372;28;20048;-64
2023/03/05 00:08:55;;;;;;;7.90;2.60;;;4.00;99.90;;;;;;5053545;28;20048;-65
2023/03/05 00:11:21;;;;;;;6.53;2.22;;;3.90;99.90;;;;;;5048890;28;20487;-63
2023/03/05 00:13:51;;;;;;;8.05;2.90;;;4.00;99.90;;;;;;5051897;28;20038;-63
2023/03/05 00:16:17;;;;;;;8.00;2.55;;;4.00;99.90;;;;;;5052726;28;20037;-65
2023/03/05 00:18:43;;;;;;;10.70;2.60;;;4.00;99.90;;;;;;5046516;28;20044;-65
2023/03/05 00:21:27;;;;;;;12.23;2.80;;;4.00;99.90;;;;;;5048214;28;20483;-63
2023/03/05 00:23:54;;;;;;;11.45;2.30;;;4.00;99.90;;;;;;5046819;28;20439;-64
2023/03/05 00:26:22;;;;;;;8.68;2.50;;;4.00;99.90;;;;;;5053134;28;20457;-63
2023/03/05 00:28:50;;;;;;;6.80;2.03;;;4.00;99.90;;;;;;5040286;28;20036;-65
2023/03/05 00:31:18;;;;;;;13.55;3.10;;;4.00;99.90;;;;;;5047408;28;20041;-65
2023/03/05 00:33:44;;;;;;;13.05;2.90;;;3.90;99.90;;;;;;5051500;28;20124;-65
2023/03/05 00:36:09;;;;;;;10.98;2.60;;;3.90;99.90;;;;;;5038710;28;20118;-65
2023/03/05 00:38:35;;;;;;;11.98;2.75;;;3.90;99.90;;;;;;5046204;28;20139;-64
2023/03/05 00:41:01;;;;;;;6.20;2.00;;;3.90;99.90;;;;;;5052735;28;20475;-63
2023/03/05 00:43:27;;;;;;;10.85;2.30;;;3.90;99.90;;;;;;5041046;28;20140;-62
2023/03/05 00:45:53;;;;;;;13.32;2.40;;;3.90;99.90;;;;;;5052100;28;20040;-64
2023/03/05 00:48:19;;;;;;;8.77;2.30;;;3.90;99.90;;;;;;5052067;28;20039;-65
2023/03/05 00:50:44;;;;;;;7.97;2.15;;;3.90;99.90;;;;;;5052981;28;20483;-64
2023/03/05 00:53:10;;;;;;;5.40;2.42;;;3.90;99.90;;;;;;5041006;28;20040;-63
2023/03/05 00:55:36;;;;;;;5.55;2.03;;;3.90;99.90;;;;;;5042803;28;20065;-64
2023/03/05 00:58:02;;;;;;;8.30;2.28;;;3.90;99.90;;;;;;5051911;28;20033;-64
2023/03/05 01:00:28;;;;;;;8.10;2.20;;;3.90;99.90;;;;;;5042712;28;20488;-65
2023/03/05 01:02:53;;;;;;;7.75;2.30;;;3.90;99.90;;;;;;5051179;28;20037;-65
2023/03/05 01:05:19;;;;;;;9.23;2.40;;;3.90;99.90;;;;;;5059963;22;20098;-63
2023/03/05 01:07:45;;;;;;;8.07;2.30;;;4.00;99.90;;;;;;5050602;28;20045;-65
2023/03/05 01:10:11;;;;;;;5.80;2.10;;;4.00;99.90;;;;;;5037980;28;20044;-65
2023/03/05 01:12:37;;;;;;;7.18;2.13;;;4.00;99.90;;;;;;5049213;28;20069;-64
2023/03/05 01:15:04;;;;;;;6.13;2.00;;;3.90;99.90;;;;;;5046996;28;20033;-64
2023/03/05 01:17:30;;;;;;;4.75;1.98;;;4.00;99.90;;;;;;5019465;28;20439;-64
2023/03/05 01:19:56;;;;;;;6.90;1.90;;;4.00;99.90;;;;;;5029346;28;20543;-64
2023/03/05 01:22:21;;;;;;;9.15;2.20;;;4.00;99.90;;;;;;5031199;28;20134;-64
2023/03/05 01:24:47;;;;;;;6.88;2.17;;;4.00;99.90;;;;;;5015211;28;20605;-65
2023/03/05 01:27:12;;;;;;;4.20;2.00;;;3.90;99.90;;;;;;5018964;28;20052;-61
2023/03/05 01:29:38;;;;;;;5.80;1.98;;;3.90;99.90;;;;;;5029574;28;20111;-64
2023/03/05 01:32:04;;;;;;;5.35;1.85;;;3.90;99.90;;;;;;5028918;28;20037;-65
2023/03/05 01:34:29;;;;;;;6.00;2.20;;;3.90;99.90;;;;;;5025091;28;20033;-61
2023/03/05 01:36:55;;;;;;;6.03;2.05;;;3.90;99.90;;;;;;5015779;28;20480;-65
2023/03/05 01:39:21;;;;;;;5.15;2.08;;;3.80;99.90;;;;;;5028251;28;20033;-65
2023/03/05 01:41:46;;;;;;;7.50;2.47;;;3.90;99.90;;;;;;5024901;28;20474;-64
2023/03/05 01:44:29;;;;;;;4.78;2.22;;;3.80;99.90;;;;;;5030571;28;20101;-63
2023/03/05 01:46:55;;;;;;;4.60;2.10;;;3.80;99.90;;;;;;5030535;28;20037;-64
2023/03/05 01:49:25;;;;;;;7.28;2.25;;;3.80;99.90;;;;;;5030662;28;20033;-64
2023/03/05 01:51:55;;;;;;;4.68;2.28;;;3.70;99.90;;;;;;5020750;28;20033;-62
2023/03/05 01:54:25;;;;;;;8.07;2.50;;;3.70;99.90;;;;;;5026847;28;20041;-65
2023/03/05 01:56:53;;;;;;;6.70;2.35;;;3.70;99.90;;;;;;5027768;28;20403;-64
2023/03/05 01:59:20;;;;;;;5.85;2.60;;;3.60;99.90;;;;;;5016012;28;20117;-63
2023/03/05 02:01:50;;;;;;;8.50;2.42;;;3.50;99.90;;;;;;5028501;28;20063;-64
2023/03/05 02:04:18;;;;;;;9.70;2.53;;;3.30;99.90;;;;;;5028899;28;20064;-64
2023/03/05 02:06:45;;;;;;;10.80;2.85;;;3.20;99.90;;;;;;5031061;28;20116;-65
2023/03/05 02:09:12;;;;;;;12.02;2.72;;;3.20;99.90;;;;;;5019419;28;20487;-65
2023/03/05 02:11:38;;;;;;;12.93;3.00;;;3.20;99.90;;;;;;5030883;28;20033;-65
2023/03/05 02:14:05;;;;;;;6.47;2.63;;;3.10;99.90;;;;;;5031672;28;20029;-65
2023/03/05 02:16:35;;;;;;;8.77;2.83;;;3.10;99.90;;;;;;5028212;28;20041;-63
2023/03/05 02:19:06;;;;;;;7.05;2.88;;;3.10;99.90;;;;;;5026380;28;20045;-65
2023/03/05 02:21:44;;;;;;;6.10;2.95;;;3.00;99.90;;;;;;4999809;28;20038;-65
2023/03/05 02:24:15;;;;;;;6.53;2.80;;;3.00;99.90;;;;;;5027206;28;20099;-65
2023/03/05 02:26:43;;;;;;;10.13;3.03;;;3.00;99.90;;;;;;5023814;28;20047;-64
2023/03/05 02:29:18;;;;;;;14.38;3.28;;;2.90;99.90;;;;;;5025888;28;20467;-65
2023/03/05 02:31:44;;;;;;;10.80;2.85;;;2.90;99.90;;;;;;5021326;28;20049;-64
2023/03/05 02:34:10;;;;;;;10.20;3.10;;;2.90;99.90;;;;;;5011500;28;20052;-64
2023/03/05 02:36:35;;;;;;;11.90;2.90;;;2.90;99.90;;;;;;5026059;28;20148;-62
2023/03/05 02:39:01;;;;;;;6.50;3.15;;;2.90;99.90;;;;;;5019324;28;20512;-65
2023/03/05 02:41:27;;;;;;;8.85;3.35;;;2.90;99.90;;;;;;5030153;28;20069;-65
2023/03/05 02:43:52;;;;;;;9.45;2.70;;;2.90;99.90;;;;;;5016303;28;20049;-65
2023/03/05 02:46:18;;;;;;;7.88;2.90;;;2.90;99.90;;;;;;5027039;28;20038;-64
2023/03/05 02:48:44;;;;;;;7.60;2.80;;;3.00;99.90;;;;;;5025811;28;20119;-64
2023/03/05 02:51:09;;;;;;;11.88;2.83;;;3.00;99.90;;;;;;5034728;28;20132;-65
2023/03/05 02:53:35;;;;;;;8.02;2.47;;;3.00;99.90;;;;;;5030193;28;20076;-65
2023/03/05 02:56:02;;;;;;;9.27;2.78;;;3.10;99.90;;;;;;5030515;28;20061;-65
2023/03/05 02:58:27;;;;;;;8.52;2.75;;;3.10;99.90;;;;;;5027470;28;20523;-64
2023/03/05 03:00:53;;;;;;;7.90;2.67;;;3.10;99.90;;;;;;5034779;28;20047;-64
2023/03/05 03:03:18;;;;;;;8.32;2.53;;;3.10;99.90;;;;;;5031608;28;20075;-64
2023/03/05 03:05:44;;;;;;;7.57;2.50;;;3.10;99.90;;;;;;5032349;28;20049;-64
2023/03/05 03:08:10;;;;;;;7.50;2.42;;;3.10;99.90;;;;;;5015480;28;20056;-65
2023/03/05 03:10:36;;;;;;;9.18;2.55;;;3.00;99.90;;;;;;5026916;28;20038;-64
2023/03/05 03:13:01;;;;;;;7.78;2.70;;;3.00;99.90;;;;;;5032254;28;20152;-64
2023/03/05 03:15:27;;;;;;;8.63;2.80;;;3.10;99.90;;;;;;5033869;28;20045;-64
2023/03/05 03:17:53;;;;;;;8.35;2.60;;;3.10;99.90;;;;;;5032640;28;20091;-64
2023/03/05 03:20:19;;;;;;;8.32;2.58;;;3.20;99.90;;;;;;5023978;28;20049;-64
2023/03/05 03:22:46;;;;;;;10.38;2.67;;;3.20;99.90;;;;;;5021776;28;20046;-64
2023/03/05 03:25:17;;;;;;;9.90;3.15;;;3.20;99.90;;;;;;5031340;28;20044;-64
2023/03/05 03:27:42;;;;;;;9.90;2.50;;;3.30;99.90;;;;;;5005145;28;20049;-64
2023/03/05 03:30:09;;;;;;;11.38;2.70;;;3.20;99.90;;;;;;5025049;28;20049;-64
2023/03/05 03:32:34;;;;;;;9.80;2.30;;;3.30;99.90;;;;;;5031856;28;20056;-65
2023/03/05 03:35:00;;;;;;;5.45;2.25;;;3.30;99.90;;;;;;5026308;28;20069;-65
2023/03/05 03:37:26;;;;;;;4.57;2.40;;;3.30;99.90;;;;;;5023414;28;20025;-65
2023/03/05 03:39:51;;;;;;;10.98;2.42;;;3.30;99.90;;;;;;5031975;28;20480;-65
2023/03/05 03:42:19;;;;;;;5.88;2.10;;;3.40;99.90;;;;;;5033375;28;20507;-65
2023/03/05 03:44:45;;;;;;;6.30;2.00;;;3.50;99.90;;;;;;5024812;28;20071;-63
2023/03/05 03:47:10;;;;;;;10.70;2.50;;;3.50;99.90;;;;;;5031334;28;20052;-64
2023/03/05 03:49:36;;;;;;;8.02;2.22;;;3.60;99.90;;;;;;5031903;28;20033;-65
2023/03/05 03:52:02;;;;;;;8.05;1.98;;;3.60;99.90;;;;;;5022058;28;20494;-65
2023/03/05 03:54:27;;;;;;;5.38;1.98;;;3.60;99.90;;;;;;5022880;28;20042;-65
2023/03/05 03:56:53;;;;;;;6.00;1.98;;;3.60;99.90;;;;;;5031768;28;20036;-64
2023/03/05 03:59:18;;;;;;;4.55;2.00;;;3.60;99.90;;;;;;5028154;28;20476;-64
2023/03/05 04:01:44;;;;;;;8.20;1.67;;;3.60;99.90;;;;;;5019517;28;20041;-64
2023/03/05 04:04:11;;;;;;;3.80;1.75;;;3.60;99.90;;;;;;5012996;28;20427;-65
2023/03/05 04:06:37;;;;;;;3.75;1.63;;;3.60;99.90;;;;;;5032622;28;20091;-65
2023/03/05 04:09:04;;;;;;;5.53;1.70;;;3.50;99.90;;;;;;5031698;28;20447;-64
2023/03/05 04:11:30;;;;;;;2.38;1.45;;;3.40;99.90;;;;;;5018407;28;20044;-64
2023/03/05 04:13:56;;;;;;;5.95;1.90;;;3.40;99.90;;;;;;5030921;28;20045;-64
2023/03/05 04:16:22;;;;;;;3.92;1.90;;;3.40;99.90;;;;;;5033469;28;20044;-64
2023/03/05 04:18:48;;;;;;;5.30;1.55;;;3.30;99.90;;;;;;5020225;28;20373;-65
2023/03/05 04:21:13;;;;;;;4.40;1.83;;;3.40;99.90;;;;;;5026627;28;20530;-64
2023/03/05 04:23:39;;;;;;;4.38;1.45;;;3.30;99.90;;;;;;5032290;28;20069;-64
2023/03/05 04:26:05;;;;;;;2.83;1.40;;;3.30;99.90;;;;;;5033015;28;20037;-64
2023/03/05 04:28:31;;;;;;;5.03;1.40;;;3.30;99.90;;;;;;5001579;28;20133;-65
2023/03/05 04:30:56;;;;;;;3.13;1.35;;;3.40;99.90;;;;;;5027404;28;20109;-65
2023/03/05 04:33:22;;;;;;;4.18;1.40;;;3.40;99.90;;;;;;5030416;28;20033;-64
2023/03/05 04:35:48;;;;;;;4.85;1.55;;;3.40;99.90;;;;;;5020673;28;20050;-64
2023/03/05 04:38:14;;;;;;;3.22;1.52;;;3.40;99.90;;;;;;5028806;28;20117;-64
2023/03/05 04:40:40;;;;;;;3.55;1.50;;;3.40;99.90;;;;;;5032190;28;20065;-63
2023/03/05 04:43:06;;;;;;;4.53;1.40;;;3.40;99.90;;;;;;5020585;28;20038;-63
2023/03/05 04:45:32;;;;;;;5.28;1.65;;;3.50;99.90;;;;;;5018609;28;20087;-64
2023/03/05 04:47:58;;;;;;;2.42;1.50;;;3.50;99.90;;;;;;5032327;28;20396;-63
2023/03/05 04:50:23;;;;;;;5.18;1.60;;;3.50;99.90;;;;;;5027331;28;20037;-63
2023/03/05 04:52:49;;;;;;;5.00;1.30;;;3.50;99.90;;;;;;5030029;28;20033;-63
2023/03/05 04:55:16;;;;;;;6.45;1.70;;;3.40;99.90;;;;;;5031339;28;20044;-63
2023/03/05 04:57:42;;;;;;;5.40;1.48;;;3.40;99.90;;;;;;5013663;28;20046;-63
2023/03/05 05:00:13;;;;;;;4.53;1.40;;;3.30;99.90;;;;;;5001718;28;20091;-63
2023/03/05 05:02:43;;;;;;;5.18;1.50;;;3.30;99.90;;;;;;5023153;28;20121;-64
2023/03/05 05:05:12;;;;;;;4.20;1.67;;;3.30;99.90;;;;;;5029912;28;20064;-63
2023/03/05 05:07:38;;;;;;;3.15;1.63;;;3.30;99.90;;;;;;5019414;28;20299;-63
2023/03/05 05:10:06;;;;;;;3.67;1.65;;;3.30;99.90;;;;;;5011804;28;20037;-63
2023/03/05 05:12:33;;;;;;;4.57;1.70;;;3.30;99.90;;;;;;5030576;28;20041;-63
2023/03/05 05:14:59;;;;;;;4.68;1.50;;;3.20;99.90;;;;;;5031295;28;20444;-63
2023/03/05 05:17:25;;;;;;;4.22;1.60;;;3.20;99.90;;;;;;5017016;28;20038;-63
2023/03/05 05:19:50;;;;;;;3.35;1.70;;;3.30;99.90;;;;;;5028152;28;20399;-64
2023/03/05 05:22:16;;;;;;;5.35;1.65;;;3.30;99.90;;;;;;5030433;28;20659;-65
2023/03/05 05:24:42;;;;;;;3.03;1.45;;;3.30;99.90;;;;;;5024899;28;20042;-65
2023/03/05 05:27:07;;;;;;;4.43;1.67;;;3.30;99.90;;;;;;5023445;28;20491;-65
2023/03/05 05:29:33;;;;;;;3.35;1.35;;;3.40;99.90;;;;;;5030841;28;20041;-65
2023/03/05 05:31:59;;;;;;;5.03;1.67;;;3.40;99.90;;;;;;5030382;28;20059;-65
2023/03/05 05:34:24;;;;;;;6.75;2.00;;;3.40;99.90;;;;;;5019580;28;20042;-64
2023/03/05 05:36:51;;;;;;;3.42;1.63;;;3.40;99.90;;;;;;5028233;28;20037;-64
2023/03/05 05:39:17;;;;;;;7.18;1.48;;;3.40;99.90;;;;;;5030225;28;20487;-64
2023/03/05 05:41:42;;;;;;;5.65;1.70;;;3.40;99.90;;;;;;5023563;28;20056;-64
2023/03/05 05:44:08;;;;;;;4.82;1.70;;;3.40;99.90;;;;;;5019150;28;20045;-64
2023/03/05 05:46:34;;;;;;;6.00;2.30;;;3.40;99.90;;;;;;5026601;28;20045;-64
2023/03/05 05:48:59;;;;;;;6.35;2.05;;;3.40;99.90;;;;;;5023591;28;20042;-64
2023/03/05 05:51:25;;;;;;;6.25;1.92;;;3.40;99.90;;;;;;5017587;28;20041;-65
2023/03/05 05:53:50;;;;;;;5.93;2.00;;;3.40;99.90;;;;;;5031076;28;20127;-65
2023/03/05 05:56:17;;;;;;;3.47;1.98;;;3.40;99.90;;;;;;5031773;28;20041;-65
2023/03/05 05:58:46;;;;;;;5.07;1.80;;;3.40;99.90;;;;;;5014900;28;20446;-64
2023/03/05 06:01:16;;;;;;;5.68;1.80;;;3.40;99.90;;;;;;5028444;28;20046;-65
2023/03/05 06:03:42;;;;;;;4.38;1.98;;;3.40;99.90;;;;;;5026992;28;20099;-65
2023/03/05 06:06:10;;;;;;;6.05;2.00;;;3.40;99.90;;;;;;4979416;28;20037;-65
2023/03/05 06:08:39;;;;;;;3.83;1.80;;;3.40;99.90;;;;;;5022122;28;20472;-65
2023/03/05 06:11:05;;;;;;;4.53;1.98;;;3.40;99.90;;;;;;5027757;28;20033;-65
2023/03/05 06:13:31;;;;;;;2.65;1.80;;;3.30;99.90;;;;;;5029589;28;20065;-64
2023/03/05 06:15:58;;;;;;;4.15;1.75;;;3.30;99.90;;;;;;5022735;28;20065;-65
2023/03/05 06:18:24;;;;;;;3.85;1.60;;;3.30;99.90;;;;;;5024840;28;20082;-63
2023/03/05 06:20:59;;;;;;;4.82;2.00;;;3.20;99.90;;;;;;5020010;28;20666;-65
2023/03/05 06:23:26;;;;;;;4.63;1.85;;;3.20;99.90;;;;;;5027817;28;20029;-64
2023/03/05 06:25:52;;;;;;;7.13;2.10;;;3.20;99.90;;;;;;5026944;28;20041;-64
2023/03/05 06:28:18;;;;;;;8.23;1.85;;;3.20;99.90;;;;;;5022215;28;20080;-64
2023/03/05 06:30:44;;;;;;;8.30;1.92;;;3.20;99.90;;;;;;5021204;28;20034;-65
2023/03/05 06:33:10;;;;;;;4.03;2.05;;;3.20;99.90;;;;;;5023062;28;20476;-64
2023/03/05 06:35:41;;;;;;;4.20;1.55;;;3.20;99.90;;;;;;5022183;28;20045;-64
2023/03/05 06:38:07;;;;;;;8.52;1.90;;;3.20;99.90;;;;;;5024874;28;20029;-64
2023/03/05 06:40:33;;;;;;;5.15;2.05;;;3.10;99.90;;;;;;5028701;28;20064;-64
2023/03/05 06:42:59;;;;;;;4.18;1.90;;;3.10;99.90;;;;;;5024900;28;20161;-64
2023/03/05 06:45:25;;;;;;;5.07;2.00;;;3.20;99.90;;;;;;5025465;28;20563;-65
2023/03/05 06:47:50;;;;;;;5.00;2.00;;;3.20;99.90;;;;;;5007831;28;20531;-65
2023/03/05 06:50:16;;;;;;;4.78;2.15;;;3.20;99.90;;;;;;5026167;28;20121;-64
2023/03/05 06:52:42;;;;;;;6.15;1.95;;;3.30;99.90;;;;;;5022880;28;20076;-64
2023/03/05 06:55:08;;;;;;;6.32;2.17;;;3.30;99.90;;;;;;5029691;28;20083;-63
2023/03/05 06:57:35;;;;;;;8.82;2.20;;;3.30;99.90;;;;;;5021495;28;20042;-64
2023/03/05 07:00:06;;;;;;;4.10;2.20;;;3.40;99.90;;;;;;5024629;28;20041;-65
2023/03/05 07:02:32;;;;;;;5.43;2.13;;;3.50;99.90;;;;;;5025383;28;20037;-61
2023/03/05 07:04:57;;;;;;;6.15;2.28;;;3.50;99.90;;;;;;5016082;28;20080;-64
2023/03/05 07:07:23;;;;;;;5.25;1.90;;;3.50;99.90;;;;;;5025473;28;20091;-63
2023/03/05 07:09:49;;;;;;;7.95;2.15;;;3.50;99.90;;;;;;5022557;28;20041;-65
2023/03/05 07:12:14;;;;;;;7.40;2.15;;;3.60;99.90;;;;;;5019360;28;20129;-64
2023/03/05 07:14:40;;;;;;;4.03;1.80;;;3.60;99.90;;;;;;5021187;28;20046;-63
2023/03/05 07:17:06;;;;;;;6.03;1.95;;;3.70;99.90;;;;;;5007239;28;20499;-64
2023/03/05 07:19:32;;;;;;;6.03;2.10;;;3.60;99.90;;;;;;5007270;28;20518;-65
2023/03/05 07:21:58;;;;;;;4.32;2.33;;;3.70;99.90;;;;;;5012702;28;20506;-65
2023/03/05 07:24:28;;;;;;;4.82;1.73;;;3.70;99.90;;;;;;5019673;28;20037;-65
2023/03/05 07:26:56;;;;;;;4.47;2.00;;;3.70;99.90;;;;;;5025682;28;20049;-63
2023/03/05 07:29:22;;;;;;;4.05;1.77;;;3.70;99.90;;;;;;5024352;28;20117;-65
2023/03/05 07:31:48;;;;;;;6.50;1.80;;;3.70;99.90;;;;;;5025382;28;20041;-65
2023/03/05 07:34:14;;;;;;;5.80;1.60;;;3.70;99.90;;;;;;5028259;28;20029;-65
2023/03/05 07:36:41;;;;;;;7.15;1.60;;;3.70;99.90;;;;;;5023925;28;20124;-65
2023/03/05 07:39:06;;;;;;;5.72;1.48;;;3.70;99.90;;;;;;5003482;28;20053;-65
2023/03/05 07:41:32;;;;;;;6.95;1.40;;;3.80;99.90;;;;;;5008426;28;20038;-60
2023/03/05 07:43:58;;;;;;;0.95;0.90;;;3.80;99.90;;;;;;5021046;28;20231;-64
2023/03/05 07:46:27;;;;;;;3.30;1.65;;;3.80;99.90;;;;;;5028926;28;20034;-62
2023/03/05 07:48:53;;;;;;;3.33;1.50;;;3.80;99.90;;;;;;5028557;28;20045;-62
2023/03/05 07:51:20;;;;;;;3.65;1.50;;;3.90;99.90;;;;;;5014610;28;20522;-63
2023/03/05 07:53:47;;;;;;;4.28;1.85;;;3.90;99.90;;;;;;5009447;28;20037;-61
2023/03/05 07:56:13;;;;;;;7.28;2.20;;;4.00;99.90;;;;;;5020093;28;20236;-62
2023/03/05 07:58:39;;;;;;;8.10;2.13;;;4.00;99.90;;;;;;5015074;28;20546;-61
2023/03/05 08:01:12;;;;;;;7.20;2.00;;;4.00;99.90;;;;;;5030105;28;20085;-62
2023/03/05 08:03:38;;;;;;;4.90;1.90;;;4.10;99.90;;;;;;5028712;28;20045;-63
2023/03/05 08:06:05;;;;;;;5.95;1.98;;;4.00;99.90;;;;;;5025979;28;20373;-62
2023/03/05 08:08:31;;;;;;;5.90;2.42;;;4.10;99.90;;;;;;5029727;28;20076;-63
2023/03/05 08:11:08;;;;;;;4.82;2.17;;;4.10;99.90;;;;;;5004326;28;20046;-62
2023/03/05 08:13:33;;;;;;;7.18;2.00;;;4.10;99.90;;;;;;5022346;28;20396;-62
2023/03/05 08:16:04;;;;;;;3.78;1.98;;;4.20;99.90;;;;;;5031479;28;20052;-62
2023/03/05 08:18:30;;;;;;;8.00;2.40;;;4.20;99.90;;;;;;5033375;28;20057;-62
2023/03/05 08:20:56;;;;;;;7.00;2.70;;;4.30;99.90;;;;;;5029388;28;20041;-63
2023/03/05 08:23:22;;;;;;;3.17;1.88;;;4.40;99.90;;;;;;5032661;28;20695;-62
2023/03/05 08:25:48;;;;;;;7.18;2.05;;;4.50;99.90;;;;;;5033196;28;20049;-62
2023/03/05 08:28:15;;;;;;;8.27;2.65;;;4.50;99.90;;;;;;5020037;28;20071;-64
2023/03/05 08:30:41;;;;;;;7.60;1.73;;;4.50;99.90;;;;;;5004876;28;20178;-64
2023/03/05 08:33:06;;;;;;;4.80;1.85;;;4.60;99.90;;;;;;5029124;28;20124;-63
2023/03/05 08:35:32;;;;;;;10.63;2.00;;;4.60;99.90;;;;;;5023013;28;20040;-65
2023/03/05 08:37:57;;;;;;;3.13;1.80;;;4.60;99.90;;;;;;5032081;28;20487;-64
2023/03/05 08:40:23;;;;;;;8.68;2.00;;;4.70;99.90;;;;;;5032432;28;20034;-64
2023/03/05 08:42:50;;;;;;;10.50;1.67;;;4.70;99.90;;;;;;5029544;28;20499;-63
2023/03/05 08:45:16;;;;;;;9.13;2.15;;;4.70;99.90;;;;;;5024936;28;20116;-65
2023/03/05 08:47:42;;;;;;;4.72;2.00;;;4.70;99.90;;;;;;5031750;28;20120;-64
2023/03/05 08:50:08;;;;;;;4.97;1.80;;;4.80;99.90;;;;;;5027333;28;20068;-64
2023/03/05 08:52:33;;;;;;;5.15;1.70;;;4.90;99.90;;;;;;5026827;28;20094;-64
2023/03/05 08:54:59;;;;;;;7.47;1.50;;;4.90;99.90;;;;;;5025455;28;20038;-64
2023/03/05 08:57:25;;;;;;;6.07;1.67;;;5.00;99.90;;;;;;5030780;28;20087;-65
2023/03/05 08:59:50;;;;;;;5.65;1.77;;;5.10;99.90;;;;;;5032826;28;20037;-64
2023/03/05 09:02:16;;;;;;;6.35;1.50;;;5.10;99.90;;;;;;5020960;28;20045;-65
2023/03/05 09:04:41;;;;;;;4.53;1.60;;;5.20;99.90;;;;;;5027617;28;20121;-64
2023/03/05 09:07:08;;;;;;;6.07;1.75;;;5.30;99.90;;;;;;5032329;28;20540;-65
2023/03/05 09:09:33;;;;;;;4.65;1.40;;;5.40;99.90;;;;;;5025870;28;20494;-64
2023/03/05 09:12:00;;;;;;;6.97;1.50;;;5.50;99.90;;;;;;5024531;28;20137;-65
2023/03/05 09:14:27;;;;;;;9.68;1.75;;;5.60;99.90;;;;;;5031887;28;20088;-65
2023/03/05 09:16:56;;;;;;;2.97;1.30;;;5.70;99.90;;;;;;5032541;28;20052;-65
2023/03/05 09:19:23;;;;;;;7.93;1.77;;;5.70;99.90;;;;;;5025311;28;20422;-64
2023/03/05 09:21:49;;;;;;;6.18;1.27;;;5.80;99.90;;;;;;5029458;28;20033;-64
2023/03/05 09:24:14;;;;;;;5.72;1.40;;;5.80;99.90;;;;;;5031813;28;20518;-64
2023/03/05 09:26:41;;;;;;;7.22;1.48;;;5.90;99.90;;;;;;5032460;28;20116;-65
2023/03/05 09:29:07;;;;;;;4.05;1.27;;;6.00;99.90;;;;;;5020231;28;20033;-65
2023/03/05 09:31:36;;;;;;;6.07;1.70;;;5.90;99.90;;;;;;5031457;28;20535;-64
2023/03/05 09:34:03;;;;;;;5.63;1.40;;;6.00;99.90;;;;;;5028994;28;20434;-65
2023/03/05 09:36:30;;;;;;;3.55;1.20;;;6.10;99.90;;;;;;5021432;28;20508;-65
2023/03/05 09:38:56;;;;;;;4.30;1.35;;;6.10;99.90;;;;;;5030963;28;20061;-64
2023/03/05 09:41:39;;;;;;;6.50;1.40;;;6.10;99.90;;;;;;5031965;28;20029;-65
2023/03/05 09:44:13;;;;;;;8.43;1.67;;;6.00;99.90;;;;;;5028721;28;20047;-64
2023/03/05 09:46:46;;;;;;;6.82;1.45;;;6.10;99.90;;;;;;5023193;28;20381;-65
2023/03/05 09:49:17;;;;;;;6.80;2.03;;;6.20;99.90;;;;;;5030763;28;20551;-64
2023/03/05 09:51:45;;;;;;;;;;;6.20;99.90;;;;;;5027041;28;20049;-65
2023/03/05 09:54:17;;;;;;;8.18;1.20;;;6.30;99.90;;;;;;5023034;28;20310;-65
2023/03/05 09:56:51;;;;;;;;;;;6.40;99.90;;;;;;5024284;28;20038;-65
2023/03/05 09:59:29;;;;;;;4.70;1.48;;;6.30;99.90;;;;;;5031491;28;19917;-65
2023/03/05 10:02:11;;;;;;;10.07;1.27;;;6.40;99.90;;;;;;5013611;28;20504;-65
2023/03/05 10:05:07;;;;;;;9.20;1.50;;;6.50;99.90;;;;;;5029403;28;20037;-65
2023/03/05 10:07:37;;;;;;;4.90;1.30;;;6.40;99.90;;;;;;5016484;28;20030;-65
2023/03/05 10:10:21;;;;;;;5.68;1.52;;;6.60;99.90;;;;;;5012908;28;20069;-64
2023/03/05 10:13:00;;;;;;;4.57;1.13;;;6.60;99.90;;;;;;5024177;28;20514;-65
2023/03/05 10:15:36;;;;;;;4.25;1.10;;;6.70;99.90;;;;;;5031201;28;20060;-64
2023/03/05 10:18:20;;;;;;;7.10;1.45;;;6.80;99.90;;;;;;5020513;28;20130;-63
2023/03/05 10:21:07;;;;;;;7.40;1.17;;;6.80;99.90;;;;;;5026377;28;20069;-64
2023/03/05 10:23:50;;;;;;;3.60;1.30;;;6.90;99.90;;;;;;5031516;28;20041;-65
2023/03/05 10:26:36;;;;;;;9.23;1.58;;;7.00;99.90;;;;;;5017757;28;20046;-65
2023/03/05 10:29:14;;;;;;;5.00;1.20;;;7.10;99.90;;;;;;5030656;28;20072;-63
2023/03/05 10:31:58;;;;;;;4.45;1.13;;;7.00;99.90;;;;;;5031510;28;20041;-65
2023/03/05 10:34:46;;;;;;;6.25;1.40;;;7.10;99.90;;;;;;5024763;28;20124;-63
2023/03/05 10:37:26;;;;;;;6.38;1.10;;;7.20;99.90;;;;;;5029458;28;20080;-63
2023/03/05 10:40:12;;;;;;;1.88;1.00;;;7.10;99.90;;;;;;5011570;28;20096;-63
2023/03/05 10:43:12;;;;;;;4.47;1.10;;;7.00;99.90;;;;;;5020950;28;20049;-62
2023/03/05 10:45:52;;;;;;;4.53;1.15;;;7.00;99.90;;;;;;5030217;28;20111;-63
2023/03/05 10:48:39;;;;;;;6.78;1.25;;;6.90;99.90;;;;;;5029820;28;20135;-65
2023/03/05 10:51:20;;;;;;;4.85;1.10;;;6.90;99.90;;;;;;5013084;28;20408;-63
2023/03/05 10:53:56;;;;;;;4.22;1.10;;;6.90;99.90;;;;;;5023570;28;20037;-64
2023/03/05 10:56:25;;;;;;;4.63;1.55;;;7.00;99.90;;;;;;5031379;28;20033;-64
2023/03/05 10:58:52;;;;;;;7.32;1.50;;;7.00;99.90;;;;;;5026342;28;20422;-63
2023/03/05 11:01:24;;;;;;;5.80;1.38;;;7.00;99.90;;;;;;5011866;28;20038;-64
2023/03/05 11:04:24;;;;;;;6.13;1.27;;;7.10;99.90;;;;;;5034621;28;20068;-64
2023/03/05 11:06:50;;;;;;;7.97;1.30;;;7.10;99.90;;;;;;5024267;28;20397;-64
2023/03/05 11:09:23;;;;;;;6.88;1.65;;;7.30;99.90;;;;;;5024184;28;20040;-64
2023/03/05 11:12:01;;;;;;;4.05;1.08;;;7.40;99.90;;;;;;5034109;28;20112;-65
2023/03/05 11:14:32;;;;;;;4.35;1.52;;;7.50;99.90;;;;;;5034348;28;20045;-64
2023/03/05 11:17:02;;;;;;;2.80;1.20;;;7.50;99.90;;;;;;5030615;28;20046;-64
2023/03/05 11:19:31;;;;;;;4.75;1.50;;;7.50;99.90;;;;;;5023402;28;20073;-64
2023/03/05 11:22:09;;;;;;;3.72;1.33;;;7.50;99.90;;;;;;5034297;28;20069;-64
2023/03/05 11:24:36;;;;;;;6.53;1.13;;;7.50;99.90;;;;;;5034729;28;20077;-64
2023/03/05 11:27:20;;;;;;;6.68;1.42;;;7.60;99.90;;;;;;5024327;28;20071;-63
2023/03/05 11:29:48;;;;;;;9.18;1.40;;;7.70;99.90;;;;;;5026852;28;20033;-63
2023/03/05 11:32:20;;;;;;;3.63;1.23;;;7.90;99.90;;;;;;5034490;28;20033;-63
2023/03/05 11:34:47;;;;;;;4.20;1.20;;;7.90;99.90;;;;;;5012253;28;20050;-63
2023/03/05 11:37:28;;;;;;;3.55;1.15;;;7.60;99.90;;;;;;5018648;28;20046;-63
2023/03/05 11:40:24;;;;;;;3.78;1.20;;;7.50;99.90;;;;;;5027573;28;20046;-65
2023/03/05 11:42:55;;;;;;;6.20;1.10;;;7.30;99.90;;;;;;5006816;28;20056;-62
2023/03/05 11:45:22;;;;;;;4.80;1.02;;;7.20;99.90;;;;;;5028286;28;20661;-64
2023/03/05 11:47:53;;;;;;;2.00;0.90;;;7.00;99.90;;;;;;5033445;28;20041;-65
2023/03/05 11:50:25;;;;;;;4.00;1.20;;;6.60;99.90;;;;;;5027803;28;20497;-62
2023/03/05 11:53:05;;;;;;;1.27;0.85;;;6.30;99.90;;;;;;5025830;28;20043;-65
2023/03/05 11:55:42;;;;;;;3.67;1.00;;;6.20;99.90;;;;;;5032128;28;20116;-63
2023/03/05 11:58:31;;;;;;;2.83;1.20;;;6.10;99.90;;;;;;5031033;28;20112;-64
2023/03/05 12:00:58;;;;;;;2.65;1.30;;;6.30;99.90;;;;;;5024344;28;20037;-62
2023/03/05 12:03:33;;;;;;;5.97;1.40;;;6.40;99.90;;;;;;5032136;28;20041;-63
2023/03/05 12:06:29;;;;;;;5.28;1.30;;;6.60;99.90;;;;;;5032344;28;20039;-62
2023/03/05 12:08:56;;;;;;;6.70;1.35;;;6.70;99.90;;;;;;5023292;28;20515;-63
2023/03/05 12:11:26;;;;;;;3.28;1.30;;;6.90;99.90;;;;;;5028422;28;20055;-63
2023/03/05 12:14:02;;;;;;;4.63;1.08;;;7.00;99.90;;;;;;5032333;28;20042;-63
2023/03/05 12:16:38;;;;;;;4.10;1.10;;;7.20;99.90;;;;;;5021975;28;20064;-64
2023/03/05 12:19:46;;;;;;;5.70;1.42;;;7.30;99.90;;;;;;5032027;28;20041;-65
2023/03/05 12:22:20;;;;;;;5.40;1.40;;;7.40;99.90;;;;;;5027528;28;20065;-63
2023/03/05 12:24:47;;;;;;;3.17;1.00;;;7.40;99.90;;;;;;5030068;28;20030;-64
2023/03/05 12:27:15;;;;;;;5.88;1.30;;;7.40;99.90;;;;;;5021646;28;20097;-63
2023/03/05 12:29:45;;;;;;;4.75;1.33;;;7.50;99.90;;;;;;5024567;28;20052;-62
2023/03/05 12:32:32;;;;;;;3.90;1.15;;;7.50;99.90;;;;;;5029668;28;20073;-63
2023/03/05 12:35:03;;;;;;;4.78;1.20;;;7.60;99.90;;;;;;5032276;28;20103;-62
2023/03/05 12:37:28;;;;;;;3.80;1.55;;;7.70;99.90;;;;;;5031972;28;20029;-64
2023/03/05 12:40:15;;;;;;;1.42;0.82;;;7.70;99.90;;;;;;5011698;28;20055;-62
2023/03/05 12:42:46;;;;;;;2.60;1.10;;;7.80;99.90;;;;;;5027119;28;20037;-64
2023/03/05 12:45:15;;;;;;;;;;;7.90;99.90;;;;;;5030402;28;20402;-62
2023/03/05 12:48:09;;;;;;;3.65;1.25;;;8.00;99.90;;;;;;5032130;28;19917;-65
2023/03/05 12:50:38;;;;;;;4.05;1.10;;;8.10;99.90;;;;;;5020289;28;20056;-66
2023/03/05 12:53:14;;;;;;;7.25;1.50;;;7.90;99.90;;;;;;5029878;28;20034;-65
2023/03/05 12:56:15;;;;;;;4.07;1.40;;;7.90;99.90;;;;;;5032405;28;20037;-65
2023/03/05 12:58:51;;;;;;;4.03;1.08;;;8.00;99.90;;;;;;5023778;28;20033;-65
2023/03/05 13:01:26;;;;;;;2.63;1.20;;;8.00;99.90;;;;;;5040468;28;20037;-65
2023/03/05 13:03:55;;;;;;;2.75;1.13;;;8.00;99.90;;;;;;5015168;28;20128;-65
2023/03/05 13:06:34;;;;;;;5.18;1.27;;;8.10;99.90;;;;;;5021455;28;20504;-65
2023/03/05 13:09:06;;;;;;;2.22;1.10;;;8.20;99.90;;;;;;5031693;28;20075;-65